createdAt,value
2022-08-03T00:00:07.470Z,1.80
2022-08-03T00:05:09.028Z,1.98
2022-08-03T00:10:10.571Z,2.10
2022-08-03T00:15:16.643Z,1.98
2022-08-03T00:20:18.442Z,2.23
2022-08-03T00:25:19.926Z,1.95
2022-08-03T00:30:21.404Z,1.75
2022-08-03T00:35:34.402Z,2.10
2022-08-03T00:40:38.923Z,2.20
2022-08-03T00:45:41.794Z,2.38
2022-08-03T00:50:43.614Z,2.17
2022-08-03T00:55:45.211Z,2.50
2022-08-03T01:00:46.740Z,2.17
2022-08-03T01:06:07.002Z,2.10
2022-08-03T01:11:11.560Z,2.25
2022-08-03T01:16:17.250Z,2.10
2022-08-03T01:21:25.906Z,2.35
2022-08-03T01:26:49.140Z,2.70
2022-08-03T01:32:58.850Z,2.17
2022-08-03T01:37:24.748Z,2.45
2022-08-03T01:42:27.301Z,2.03
2022-08-03T01:47:29.373Z,2.08
2022-08-03T01:52:32.570Z,1.90
2022-08-03T01:57:35.311Z,2.13
2022-08-03T02:02:58.039Z,2.70
2022-08-03T02:08:00.597Z,2.20
2022-08-03T02:13:02.495Z,2.85
2022-08-03T02:18:05.959Z,2.42
2022-08-03T02:23:07.653Z,2.30
2022-08-03T02:28:11.339Z,2.30
2022-08-03T02:33:19.598Z,2.30
2022-08-03T02:38:23.185Z,2.22
2022-08-03T02:43:25.314Z,2.03
2022-08-03T02:48:32.506Z,2.70
2022-08-03T02:53:34.669Z,1.80
2022-08-03T02:58:37.474Z,2.20
2022-08-03T03:03:44.853Z,2.85
2022-08-03T03:08:47.135Z,2.70
2022-08-03T03:13:51.913Z,2.20
2022-08-03T03:18:54.498Z,2.38
2022-08-03T03:23:56.145Z,2.47
2022-08-03T03:28:57.605Z,2.38
2022-08-03T03:33:59.359Z,2.28
2022-08-03T03:39:15.731Z,2.30
2022-08-03T03:44:17.671Z,2.47
2022-08-03T03:49:19.227Z,2.65
2022-08-03T03:54:21.339Z,2.75
2022-08-03T03:59:26.159Z,2.50
2022-08-03T04:04:46.792Z,2.45
2022-08-03T04:10:14.719Z,2.60
2022-08-03T04:15:18.059Z,2.15
2022-08-03T04:20:20.690Z,2.70
2022-08-03T04:25:25.760Z,2.63
2022-08-03T04:30:28.459Z,2.30
2022-08-03T04:35:58.601Z,2.20
2022-08-03T04:40:54.464Z,2.10
2022-08-03T04:45:56.688Z,2.35
2022-08-03T04:50:58.326Z,2.70
2022-08-03T04:56:05.967Z,2.33
2022-08-03T05:01:07.612Z,2.03
2022-08-03T05:06:11.629Z,2.38
2022-08-03T05:11:13.244Z,2.58
2022-08-03T05:16:15.048Z,2.88
2022-08-03T05:21:17.160Z,2.60
2022-08-03T05:26:18.658Z,2.80
2022-08-03T05:31:20.448Z,2.50
2022-08-03T05:36:21.994Z,2.85
2022-08-03T05:41:36.901Z,2.72
2022-08-03T05:46:39.173Z,3.67
2022-08-03T05:51:40.728Z,3.10
2022-08-03T05:56:42.771Z,4.32
2022-08-03T06:01:44.222Z,3.05
2022-08-03T06:06:45.854Z,4.10
2022-08-03T06:11:47.367Z,3.70
2022-08-03T06:16:48.895Z,4.38
2022-08-03T06:21:50.591Z,4.13
2022-08-03T06:26:53.457Z,3.40
2022-08-03T06:31:55.468Z,3.95
2022-08-03T06:37:01.946Z,4.32
2022-08-03T06:42:04.368Z,3.72
2022-08-03T06:47:06.197Z,4.25
2022-08-03T06:52:38.171Z,4.45
2022-08-03T06:57:37.972Z,3.88
2022-08-03T07:02:40.067Z,4.28
2022-08-03T07:07:41.586Z,4.35
2022-08-03T07:12:55.761Z,5.40
2022-08-03T07:17:58.580Z,4.22
2022-08-03T07:23:00.027Z,3.92
2022-08-03T07:28:01.540Z,4.38
2022-08-03T07:33:03.083Z,4.53
2022-08-03T07:38:04.561Z,3.85
2022-08-03T07:43:05.980Z,3.90
2022-08-03T07:48:11.962Z,4.38
2022-08-03T07:53:14.428Z,4.53
2022-08-03T07:58:21.950Z,4.50
2022-08-03T08:03:26.708Z,4.50
2022-08-03T08:08:28.445Z,4.80
2022-08-03T08:13:32.560Z,4.60
2022-08-03T08:18:34.559Z,4.65
2022-08-03T08:23:42.670Z,4.80
2022-08-03T08:28:45.712Z,4.65
2022-08-03T08:34:04.404Z,4.13
2022-08-03T08:39:06.479Z,5.03
2022-08-03T08:44:10.324Z,4.32
2022-08-03T08:49:12.555Z,4.30
2022-08-03T08:54:15.089Z,4.05
2022-08-03T08:59:17.454Z,4.80
2022-08-03T09:04:18.912Z,4.47
2022-08-03T09:10:08.409Z,4.68
2022-08-03T09:14:49.899Z,5.15
2022-08-03T09:20:06.523Z,4.68
2022-08-03T09:25:27.201Z,4.60
2022-08-03T09:30:39.237Z,4.97
2022-08-03T09:35:58.142Z,4.50
2022-08-03T09:41:00.857Z,5.03
2022-08-03T09:46:04.087Z,4.20
2022-08-03T09:51:14.041Z,3.83
2022-08-03T09:56:58.923Z,4.07
2022-08-03T10:02:00.688Z,4.97
2022-08-03T10:07:06.808Z,4.85
2022-08-03T10:12:11.357Z,4.28
2022-08-03T10:17:13.326Z,4.38
2022-08-03T10:22:16.650Z,3.92
2022-08-03T10:27:19.452Z,4.60
2022-08-03T10:32:39.681Z,4.22
2022-08-03T10:37:43.102Z,4.22
2022-08-03T10:43:09.134Z,4.22
2022-08-03T10:48:11.002Z,3.80
2022-08-03T10:53:14.726Z,4.65
2022-08-03T10:58:53.471Z,4.50
2022-08-03T11:03:59.448Z,4.20
2022-08-03T11:09:10.086Z,4.30
2022-08-03T11:14:13.192Z,4.15
2022-08-03T11:19:15.887Z,3.35
2022-08-03T11:24:36.816Z,3.92
2022-08-03T11:29:53.720Z,4.47
2022-08-03T11:35:14.886Z,6.20
2022-08-03T11:40:33.173Z,6.38
2022-08-03T11:45:35.413Z,6.72
2022-08-03T11:50:37.970Z,6.80
2022-08-03T11:55:42.083Z,6.57
2022-08-03T12:00:43.595Z,7.28
2022-08-03T12:05:48.090Z,7.07
2022-08-03T12:10:54.720Z,5.82
2022-08-03T12:15:57.449Z,6.00
2022-08-03T12:21:06.870Z,6.10
2022-08-03T12:26:09.877Z,6.47
2022-08-03T12:31:11.425Z,6.10
2022-08-03T12:36:12.892Z,6.50
2022-08-03T12:41:16.650Z,6.38
2022-08-03T12:46:18.873Z,5.78
2022-08-03T12:51:23.399Z,5.88
2022-08-03T12:56:27.139Z,5.05
2022-08-03T13:01:36.480Z,4.90
2022-08-03T13:06:38.016Z,4.25
2022-08-03T13:11:55.781Z,3.92
2022-08-03T13:17:00.903Z,2.95
2022-08-03T13:22:11.904Z,2.70
2022-08-03T13:27:23.326Z,2.58
2022-08-03T13:32:35.694Z,3.03
2022-08-03T13:37:37.419Z,2.88
2022-08-03T13:42:39.087Z,2.47
2022-08-03T13:47:40.546Z,2.83
2022-08-03T13:52:42.142Z,2.42
2022-08-03T13:58:11.928Z,3.20
2022-08-03T14:03:13.303Z,2.50
2022-08-03T14:08:15.873Z,2.97
2022-08-03T14:13:18.169Z,2.45
2022-08-03T14:18:28.576Z,2.70
2022-08-03T14:23:36.089Z,2.60
2022-08-03T14:28:37.889Z,2.47
2022-08-03T14:33:39.325Z,2.50
2022-08-03T14:38:40.801Z,2.33
2022-08-03T14:43:42.242Z,1.95
2022-08-03T14:50:37.641Z,2.33
2022-08-03T14:54:26.761Z,2.22
2022-08-03T14:59:55.647Z,2.28
2022-08-03T15:04:55.171Z,2.10
2022-08-03T15:09:56.803Z,2.50
2022-08-03T15:14:58.236Z,2.30
2022-08-03T15:20:26.541Z,2.60
2022-08-03T15:26:29.636Z,2.42
2022-08-03T15:30:42.558Z,2.83
2022-08-03T15:35:44.255Z,2.45
2022-08-03T15:40:45.849Z,2.00
2022-08-03T15:45:47.428Z,1.88
2022-08-03T15:50:48.844Z,2.20
2022-08-03T15:55:50.304Z,2.42
2022-08-03T16:00:51.864Z,2.20
2022-08-03T16:05:53.357Z,2.42
2022-08-03T16:10:54.822Z,1.90
2022-08-03T16:15:57.463Z,2.25
2022-08-03T16:20:59.025Z,2.13
2022-08-03T16:26:00.482Z,2.45
2022-08-03T16:31:01.956Z,2.25
2022-08-03T16:36:03.618Z,2.50
2022-08-03T16:41:05.063Z,2.22
2022-08-03T16:46:06.553Z,2.28
2022-08-03T16:51:10.737Z,2.30
2022-08-03T16:56:12.502Z,2.10
2022-08-03T17:01:21.947Z,2.42
2022-08-03T17:06:26.783Z,2.20
2022-08-03T17:11:37.394Z,2.22
2022-08-03T17:16:39.211Z,2.42
2022-08-03T17:22:01.349Z,2.25
2022-08-03T17:27:08.716Z,2.70
2022-08-03T17:32:21.467Z,3.00
2022-08-03T17:37:50.017Z,2.58
2022-08-03T17:42:50.749Z,2.10
2022-08-03T17:47:57.019Z,2.58
2022-08-03T17:53:07.669Z,2.70
2022-08-03T17:58:23.107Z,2.83
2022-08-03T18:03:59.140Z,2.53
2022-08-03T18:09:05.395Z,2.22
2022-08-03T18:14:29.398Z,2.20
2022-08-03T18:20:02.028Z,2.30
2022-08-03T18:25:07.785Z,2.08
2022-08-03T18:30:09.917Z,2.33
2022-08-03T18:35:13.929Z,2.05
2022-08-03T18:40:20.924Z,2.88
2022-08-03T18:45:56.442Z,2.40
2022-08-03T18:51:07.108Z,2.63
2022-08-03T18:56:14.685Z,2.28
2022-08-03T19:07:08.774Z,2.17
2022-08-03T19:12:27.250Z,2.20
2022-08-03T19:17:41.498Z,2.38
2022-08-03T19:22:45.915Z,2.08
2022-08-03T19:27:52.206Z,2.00
2022-08-03T19:32:54.045Z,1.92
2022-08-03T19:37:56.287Z,2.47
2022-08-03T19:43:09.355Z,2.70
2022-08-03T19:48:16.871Z,2.60
2022-08-03T19:53:19.403Z,2.35
2022-08-03T19:58:24.522Z,2.00
2022-08-03T20:03:42.894Z,2.30
2022-08-03T20:08:45.605Z,1.85
2022-08-03T20:13:54.119Z,2.30
2022-08-03T20:18:56.055Z,1.95
2022-08-03T20:24:03.089Z,1.80
2022-08-03T20:30:04.852Z,1.95
2022-08-03T20:34:49.425Z,2.38
2022-08-03T20:39:51.008Z,2.30
2022-08-03T20:45:05.127Z,2.03
2022-08-03T20:50:09.072Z,1.63
2022-08-03T20:55:12.932Z,1.92
2022-08-03T21:00:17.848Z,1.83
2022-08-03T21:05:21.219Z,2.22
2022-08-03T21:10:42.125Z,1.80
2022-08-03T21:13:10.024Z,2.87
2022-08-03T21:16:06.860Z,1.70
2022-08-03T21:21:08.258Z,2.00
2022-08-03T21:26:11.365Z,1.90
2022-08-03T21:31:13.432Z,1.80
2022-08-03T21:36:15.086Z,1.60
2022-08-03T21:41:16.580Z,1.60
2022-08-03T21:46:19.432Z,1.63
2022-08-03T21:51:23.711Z,1.73
2022-08-03T21:56:26.235Z,2.17
2022-08-03T22:01:29.472Z,1.88
2022-08-03T22:06:36.898Z,2.20
2022-08-03T22:11:38.992Z,1.75
2022-08-03T22:16:41.022Z,1.80
2022-08-03T22:21:46.410Z,2.10
2022-08-03T22:27:06.992Z,2.08
2022-08-03T22:32:08.610Z,2.03
2022-08-03T22:37:10.873Z,1.80
2022-08-03T22:42:13.549Z,2.03
2022-08-03T22:47:15.209Z,1.60
2022-08-03T22:52:24.699Z,2.30
2022-08-03T22:57:26.157Z,1.77
2022-08-03T23:02:28.650Z,1.77
2022-08-03T23:07:34.234Z,1.85
2022-08-03T23:12:36.677Z,2.08
2022-08-03T23:17:57.837Z,2.10
2022-08-03T23:23:00.255Z,2.50
2022-08-03T23:28:05.660Z,2.47
2022-08-03T23:33:08.097Z,2.28
2022-08-03T23:38:21.828Z,2.67
2022-08-03T23:43:36.730Z,2.10
2022-08-03T23:48:46.593Z,2.17
2022-08-03T23:53:51.561Z,2.08
2022-08-03T23:58:53.017Z,2.33
